sensor_id;sensor_type;location;lat;lon;timestamp;temperature;humidity
5940;DHT22;2995;-31.998;115.906;2022-10-31T00:01:18;16.50;99.90
5940;DHT22;2995;-31.998;115.906;2022-10-31T00:03:51;16.30;99.90
5940;DHT22;2995;-31.998;115.906;2022-10-31T00:06:23;15.90;99.90
5940;DHT22;2995;-31.998;115.906;2022-10-31T00:08:55;15.50;99.90
5940;DHT22;2995;-31.998;115.906;2022-10-31T00:11:27;15.20;99.90
5940;DHT22;2995;-31.998;115.906;2022-10-31T00:13:59;15.80;99.90
5940;DHT22;2995;-31.998;115.906;2022-10-31T00:16:31;16.30;99.90
5940;DHT22;2995;-31.998;115.906;2022-10-31T00:19:05;16.30;99.90
5940;DHT22;2995;-31.998;115.906;2022-10-31T00:21:37;16.80;99.90
5940;DHT22;2995;-31.998;115.906;2022-10-31T00:24:08;17.10;99.90
5940;DHT22;2995;-31.998;115.906;2022-10-31T00:26:40;17.30;99.90
5940;DHT22;2995;-31.998;115.906;2022-10-31T00:29:11;18.00;99.90
5940;DHT22;2995;-31.998;115.906;2022-10-31T00:31:43;17.80;99.90
5940;DHT22;2995;-31.998;115.906;2022-10-31T00:34:16;17.70;99.90
5940;DHT22;2995;-31.998;115.906;2022-10-31T00:36:47;18.00;99.90
5940;DHT22;2995;-31.998;115.906;2022-10-31T00:39:18;18.10;99.90
5940;DHT22;2995;-31.998;115.906;2022-10-31T00:41:49;18.60;99.90
5940;DHT22;2995;-31.998;115.906;2022-10-31T00:44:20;18.70;99.90
5940;DHT22;2995;-31.998;115.906;2022-10-31T00:46:52;19.40;99.90
5940;DHT22;2995;-31.998;115.906;2022-10-31T00:49:25;18.20;99.90
5940;DHT22;2995;-31.998;115.906;2022-10-31T00:51:56;18.40;99.90
5940;DHT22;2995;-31.998;115.906;2022-10-31T00:54:27;18.70;99.90
5940;DHT22;2995;-31.998;115.906;2022-10-31T00:56:58;18.50;99.90
5940;DHT22;2995;-31.998;115.906;2022-10-31T00:59:30;19.00;99.90
5940;DHT22;2995;-31.998;115.906;2022-10-31T01:02:01;19.20;99.90
5940;DHT22;2995;-31.998;115.906;2022-10-31T01:04:34;19.20;99.90
5940;DHT22;2995;-31.998;115.906;2022-10-31T01:07:05;18.20;99.90
5940;DHT22;2995;-31.998;115.906;2022-10-31T01:09:37;18.70;99.90
5940;DHT22;2995;-31.998;115.906;2022-10-31T01:12:08;18.80;99.90
5940;DHT22;2995;-31.998;115.906;2022-10-31T01:14:42;19.10;99.90
5940;DHT22;2995;-31.998;115.906;2022-10-31T01:17:14;19.00;99.90
5940;DHT22;2995;-31.998;115.906;2022-10-31T01:19:47;19.20;99.90
5940;DHT22;2995;-31.998;115.906;2022-10-31T01:22:18;19.60;99.90
5940;DHT22;2995;-31.998;115.906;2022-10-31T01:24:49;19.80;99.90
5940;DHT22;2995;-31.998;115.906;2022-10-31T01:27:20;19.40;99.90
5940;DHT22;2995;-31.998;115.906;2022-10-31T01:29:52;19.50;99.90
5940;DHT22;2995;-31.998;115.906;2022-10-31T01:32:23;19.20;99.90
5940;DHT22;2995;-31.998;115.906;2022-10-31T01:34:58;19.40;99.90
5940;DHT22;2995;-31.998;115.906;2022-10-31T01:37:30;19.30;99.90
5940;DHT22;2995;-31.998;115.906;2022-10-31T01:40:01;18.70;99.90
5940;DHT22;2995;-31.998;115.906;2022-10-31T01:42:33;18.80;99.90
5940;DHT22;2995;-31.998;115.906;2022-10-31T01:45:04;18.90;99.90
5940;DHT22;2995;-31.998;115.906;2022-10-31T01:47:40;19.10;99.90
5940;DHT22;2995;-31.998;115.906;2022-10-31T01:50:25;19.20;99.90
5940;DHT22;2995;-31.998;115.906;2022-10-31T01:52:57;19.00;99.90
5940;DHT22;2995;-31.998;115.906;2022-10-31T01:55:32;18.70;99.90
5940;DHT22;2995;-31.998;115.906;2022-10-31T01:58:07;19.00;99.90
5940;DHT22;2995;-31.998;115.906;2022-10-31T02:00:40;19.00;99.90
5940;DHT22;2995;-31.998;115.906;2022-10-31T02:03:13;18.90;99.90
5940;DHT22;2995;-31.998;115.906;2022-10-31T02:05:47;18.50;99.90
5940;DHT22;2995;-31.998;115.906;2022-10-31T02:08:23;18.20;99.90
5940;DHT22;2995;-31.998;115.906;2022-10-31T02:10:57;18.30;99.90
5940;DHT22;2995;-31.998;115.906;2022-10-31T02:13:29;18.30;99.90
5940;DHT22;2995;-31.998;115.906;2022-10-31T02:16:01;18.50;99.90
5940;DHT22;2995;-31.998;115.906;2022-10-31T02:18:32;18.60;99.90
5940;DHT22;2995;-31.998;115.906;2022-10-31T02:21:11;18.50;99.90
5940;DHT22;2995;-31.998;115.906;2022-10-31T02:24:14;18.60;99.90
5940;DHT22;2995;-31.998;115.906;2022-10-31T02:30:05;18.90;99.90
5940;DHT22;2995;-31.998;115.906;2022-10-31T02:35:49;19.30;99.90
5940;DHT22;2995;-31.998;115.906;2022-10-31T02:38:28;19.30;99.90
5940;DHT22;2995;-31.998;115.906;2022-10-31T02:41:08;18.90;99.90
5940;DHT22;2995;-31.998;115.906;2022-10-31T02:43:56;19.20;99.90
5940;DHT22;2995;-31.998;115.906;2022-10-31T02:46:34;19.30;99.90
5940;DHT22;2995;-31.998;115.906;2022-10-31T02:49:11;19.10;99.90
5940;DHT22;2995;-31.998;115.906;2022-10-31T02:51:46;19.50;99.90
5940;DHT22;2995;-31.998;115.906;2022-10-31T02:54:21;19.70;99.90
5940;DHT22;2995;-31.998;115.906;2022-10-31T02:56:54;19.60;99.90
5940;DHT22;2995;-31.998;115.906;2022-10-31T02:59:27;19.20;99.90
5940;DHT22;2995;-31.998;115.906;2022-10-31T03:02:09;19.20;99.90
5940;DHT22;2995;-31.998;115.906;2022-10-31T03:04:50;19.70;99.90
5940;DHT22;2995;-31.998;115.906;2022-10-31T03:07:30;19.20;99.90
5940;DHT22;2995;-31.998;115.906;2022-10-31T03:10:05;19.80;99.90
5940;DHT22;2995;-31.998;115.906;2022-10-31T03:12:43;19.60;99.90
5940;DHT22;2995;-31.998;115.906;2022-10-31T03:15:21;19.60;99.90
5940;DHT22;2995;-31.998;115.906;2022-10-31T03:17:57;19.90;99.90
5940;DHT22;2995;-31.998;115.906;2022-10-31T03:20:36;19.80;99.90
5940;DHT22;2995;-31.998;115.906;2022-10-31T03:23:12;19.70;99.90
5940;DHT22;2995;-31.998;115.906;2022-10-31T03:25:44;19.70;99.90
5940;DHT22;2995;-31.998;115.906;2022-10-31T03:28:19;20.00;99.90
5940;DHT22;2995;-31.998;115.906;2022-10-31T03:30:53;19.70;99.90
5940;DHT22;2995;-31.998;115.906;2022-10-31T03:33:28;19.60;99.90
5940;DHT22;2995;-31.998;115.906;2022-10-31T03:36:05;19.70;99.90
5940;DHT22;2995;-31.998;115.906;2022-10-31T03:38:38;19.70;99.90
5940;DHT22;2995;-31.998;115.906;2022-10-31T03:41:13;19.30;99.90
5940;DHT22;2995;-31.998;115.906;2022-10-31T03:43:51;19.70;99.90
5940;DHT22;2995;-31.998;115.906;2022-10-31T03:46:23;19.90;99.90
5940;DHT22;2995;-31.998;115.906;2022-10-31T03:48:54;20.10;99.90
5940;DHT22;2995;-31.998;115.906;2022-10-31T03:51:35;20.40;99.90
5940;DHT22;2995;-31.998;115.906;2022-10-31T03:54:13;20.60;99.90
5940;DHT22;2995;-31.998;115.906;2022-10-31T03:56:49;20.70;99.90
5940;DHT22;2995;-31.998;115.906;2022-10-31T03:59:26;20.20;99.90
5940;DHT22;2995;-31.998;115.906;2022-10-31T04:02:03;20.40;99.90
5940;DHT22;2995;-31.998;115.906;2022-10-31T04:04:36;20.60;99.90
5940;DHT22;2995;-31.998;115.906;2022-10-31T04:07:11;20.70;99.90
5940;DHT22;2995;-31.998;115.906;2022-10-31T04:09:44;20.80;99.90
5940;DHT22;2995;-31.998;115.906;2022-10-31T04:12:17;20.90;99.90
5940;DHT22;2995;-31.998;115.906;2022-10-31T04:14:49;21.00;99.90
5940;DHT22;2995;-31.998;115.906;2022-10-31T04:17:23;21.20;99.90
5940;DHT22;2995;-31.998;115.906;2022-10-31T04:19:55;21.20;99.90
5940;DHT22;2995;-31.998;115.906;2022-10-31T04:22:28;21.30;99.90
5940;DHT22;2995;-31.998;115.906;2022-10-31T04:24:59;20.90;99.90
5940;DHT22;2995;-31.998;115.906;2022-10-31T04:27:30;21.00;99.90
5940;DHT22;2995;-31.998;115.906;2022-10-31T04:30:02;21.00;99.90
5940;DHT22;2995;-31.998;115.906;2022-10-31T04:32:34;21.00;99.90
5940;DHT22;2995;-31.998;115.906;2022-10-31T04:35:05;21.10;99.90
5940;DHT22;2995;-31.998;115.906;2022-10-31T04:37:39;21.20;99.90
5940;DHT22;2995;-31.998;115.906;2022-10-31T04:40:11;21.20;99.90
5940;DHT22;2995;-31.998;115.906;2022-10-31T04:42:42;21.00;99.90
5940;DHT22;2995;-31.998;115.906;2022-10-31T04:45:13;21.20;99.90
5940;DHT22;2995;-31.998;115.906;2022-10-31T04:47:44;21.30;99.90
5940;DHT22;2995;-31.998;115.906;2022-10-31T04:50:16;21.40;99.90
5940;DHT22;2995;-31.998;115.906;2022-10-31T04:52:49;21.40;99.90
5940;DHT22;2995;-31.998;115.906;2022-10-31T04:55:20;21.30;99.90
5940;DHT22;2995;-31.998;115.906;2022-10-31T04:57:51;21.30;99.90
5940;DHT22;2995;-31.998;115.906;2022-10-31T05:00:23;21.30;99.90
5940;DHT22;2995;-31.998;115.906;2022-10-31T05:02:55;21.30;99.90
5940;DHT22;2995;-31.998;115.906;2022-10-31T05:05:28;21.20;99.90
5940;DHT22;2995;-31.998;115.906;2022-10-31T05:08:01;21.10;99.90
5940;DHT22;2995;-31.998;115.906;2022-10-31T05:10:32;21.20;99.90
5940;DHT22;2995;-31.998;115.906;2022-10-31T05:13:05;21.20;99.90
5940;DHT22;2995;-31.998;115.906;2022-10-31T05:15:36;20.80;99.90
5940;DHT22;2995;-31.998;115.906;2022-10-31T05:18:07;21.00;99.90
5940;DHT22;2995;-31.998;115.906;2022-10-31T05:20:38;21.20;99.90
5940;DHT22;2995;-31.998;115.906;2022-10-31T05:23:12;21.20;99.90
5940;DHT22;2995;-31.998;115.906;2022-10-31T05:25:43;21.10;99.90
5940;DHT22;2995;-31.998;115.906;2022-10-31T05:28:14;21.20;99.90
5940;DHT22;2995;-31.998;115.906;2022-10-31T05:30:45;21.20;99.90
5940;DHT22;2995;-31.998;115.906;2022-10-31T05:33:17;21.30;99.90
5940;DHT22;2995;-31.998;115.906;2022-10-31T05:35:48;21.20;99.90
5940;DHT22;2995;-31.998;115.906;2022-10-31T05:38:21;21.10;99.90
5940;DHT22;2995;-31.998;115.906;2022-10-31T05:40:55;21.30;99.90
5940;DHT22;2995;-31.998;115.906;2022-10-31T05:43:28;21.40;99.90
5940;DHT22;2995;-31.998;115.906;2022-10-31T05:46:00;21.30;99.90
5940;DHT22;2995;-31.998;115.906;2022-10-31T05:48:31;21.00;99.90
5940;DHT22;2995;-31.998;115.906;2022-10-31T05:51:02;21.20;99.90
5940;DHT22;2995;-31.998;115.906;2022-10-31T05:53:35;21.20;99.90
5940;DHT22;2995;-31.998;115.906;2022-10-31T05:56:07;21.00;99.90
5940;DHT22;2995;-31.998;115.906;2022-10-31T05:58:38;21.00;99.90
5940;DHT22;2995;-31.998;115.906;2022-10-31T06:01:09;21.20;99.90
5940;DHT22;2995;-31.998;115.906;2022-10-31T06:03:41;21.00;99.90
5940;DHT22;2995;-31.998;115.906;2022-10-31T06:06:12;20.80;99.90
5940;DHT22;2995;-31.998;115.906;2022-10-31T06:08:45;20.80;99.90
5940;DHT22;2995;-31.998;115.906;2022-10-31T06:11:16;21.00;99.90
5940;DHT22;2995;-31.998;115.906;2022-10-31T06:13:47;20.90;99.90
5940;DHT22;2995;-31.998;115.906;2022-10-31T06:16:19;20.70;99.90
5940;DHT22;2995;-31.998;115.906;2022-10-31T06:18:50;20.50;99.90
5940;DHT22;2995;-31.998;115.906;2022-10-31T06:21:21;20.40;99.90
5940;DHT22;2995;-31.998;115.906;2022-10-31T06:23:54;20.30;99.90
5940;DHT22;2995;-31.998;115.906;2022-10-31T06:26:25;20.50;99.90
5940;DHT22;2995;-31.998;115.906;2022-10-31T06:28:57;20.60;99.90
5940;DHT22;2995;-31.998;115.906;2022-10-31T06:31:28;20.80;99.90
5940;DHT22;2995;-31.998;115.906;2022-10-31T06:33:59;20.70;99.90
5940;DHT22;2995;-31.998;115.906;2022-10-31T06:36:30;20.80;99.90
5940;DHT22;2995;-31.998;115.906;2022-10-31T06:39:04;20.70;99.90
5940;DHT22;2995;-31.998;115.906;2022-10-31T06:41:35;20.90;99.90
5940;DHT22;2995;-31.998;115.906;2022-10-31T06:44:08;20.90;99.90
5940;DHT22;2995;-31.998;115.906;2022-10-31T06:46:39;20.70;99.90
5940;DHT22;2995;-31.998;115.906;2022-10-31T06:49:10;20.80;99.90
5940;DHT22;2995;-31.998;115.906;2022-10-31T06:51:42;20.70;99.90
5940;DHT22;2995;-31.998;115.906;2022-10-31T06:54:15;20.50;99.90
5940;DHT22;2995;-31.998;115.906;2022-10-31T06:56:48;20.40;99.90
5940;DHT22;2995;-31.998;115.906;2022-10-31T06:59:19;20.40;99.90
5940;DHT22;2995;-31.998;115.906;2022-10-31T07:01:52;20.20;99.90
5940;DHT22;2995;-31.998;115.906;2022-10-31T07:04:23;20.40;99.90
5940;DHT22;2995;-31.998;115.906;2022-10-31T07:06:54;20.30;99.90
5940;DHT22;2995;-31.998;115.906;2022-10-31T07:09:27;20.40;99.90
5940;DHT22;2995;-31.998;115.906;2022-10-31T07:11:59;20.20;99.90
5940;DHT22;2995;-31.998;115.906;2022-10-31T07:14:30;20.10;99.90
5940;DHT22;2995;-31.998;115.906;2022-10-31T07:17:01;20.20;99.90
5940;DHT22;2995;-31.998;115.906;2022-10-31T07:19:32;20.00;99.90
5940;DHT22;2995;-31.998;115.906;2022-10-31T07:22:03;19.90;99.90
5940;DHT22;2995;-31.998;115.906;2022-10-31T07:24:37;20.00;99.90
5940;DHT22;2995;-31.998;115.906;2022-10-31T07:27:08;20.00;99.90
5940;DHT22;2995;-31.998;115.906;2022-10-31T07:29:40;19.90;99.90
5940;DHT22;2995;-31.998;115.906;2022-10-31T07:32:11;19.70;99.90
5940;DHT22;2995;-31.998;115.906;2022-10-31T07:34:43;19.50;99.90
5940;DHT22;2995;-31.998;115.906;2022-10-31T07:37:14;19.60;99.90
5940;DHT22;2995;-31.998;115.906;2022-10-31T07:39:47;19.60;99.90
5940;DHT22;2995;-31.998;115.906;2022-10-31T07:42:18;19.60;99.90
5940;DHT22;2995;-31.998;115.906;2022-10-31T07:44:49;19.50;99.90
5940;DHT22;2995;-31.998;115.906;2022-10-31T07:47:20;19.60;99.90
5940;DHT22;2995;-31.998;115.906;2022-10-31T07:49:52;19.60;99.90
5940;DHT22;2995;-31.998;115.906;2022-10-31T07:52:23;19.70;99.90
5940;DHT22;2995;-31.998;115.906;2022-10-31T07:54:56;19.90;99.90
5940;DHT22;2995;-31.998;115.906;2022-10-31T07:57:27;20.00;99.90
5940;DHT22;2995;-31.998;115.906;2022-10-31T07:59:58;19.70;99.90
5940;DHT22;2995;-31.998;115.906;2022-10-31T08:02:29;19.50;99.90
5940;DHT22;2995;-31.998;115.906;2022-10-31T08:05:01;19.60;99.90
5940;DHT22;2995;-31.998;115.906;2022-10-31T08:07:37;19.60;99.90
5940;DHT22;2995;-31.998;115.906;2022-10-31T08:10:10;19.60;99.90
5940;DHT22;2995;-31.998;115.906;2022-10-31T08:12:41;19.60;99.90
5940;DHT22;2995;-31.998;115.906;2022-10-31T08:15:13;19.50;99.90
5940;DHT22;2995;-31.998;115.906;2022-10-31T08:17:44;19.60;99.90
5940;DHT22;2995;-31.998;115.906;2022-10-31T08:20:15;19.40;99.90
5940;DHT22;2995;-31.998;115.906;2022-10-31T08:22:55;19.30;99.90
5940;DHT22;2995;-31.998;115.906;2022-10-31T08:25:31;19.20;99.90
5940;DHT22;2995;-31.998;115.906;2022-10-31T08:28:04;19.10;99.90
5940;DHT22;2995;-31.998;115.906;2022-10-31T08:30:36;19.10;99.90
5940;DHT22;2995;-31.998;115.906;2022-10-31T08:33:10;19.10;99.90
5940;DHT22;2995;-31.998;115.906;2022-10-31T08:35:42;18.90;99.90
5940;DHT22;2995;-31.998;115.906;2022-10-31T08:38:13;18.70;99.90
5940;DHT22;2995;-31.998;115.906;2022-10-31T08:40:49;18.90;99.90
5940;DHT22;2995;-31.998;115.906;2022-10-31T08:43:20;19.00;99.90
5940;DHT22;2995;-31.998;115.906;2022-10-31T08:45:51;18.90;99.90
5940;DHT22;2995;-31.998;115.906;2022-10-31T08:48:23;18.70;99.90
5940;DHT22;2995;-31.998;115.906;2022-10-31T08:50:57;18.70;99.90
5940;DHT22;2995;-31.998;115.906;2022-10-31T08:53:29;18.70;99.90
5940;DHT22;2995;-31.998;115.906;2022-10-31T08:56:02;18.70;99.90
5940;DHT22;2995;-31.998;115.906;2022-10-31T08:58:33;18.60;99.90
5940;DHT22;2995;-31.998;115.906;2022-10-31T09:01:04;18.60;99.90
5940;DHT22;2995;-31.998;115.906;2022-10-31T09:03:36;18.50;99.90
5940;DHT22;2995;-31.998;115.906;2022-10-31T09:06:07;18.40;99.90
5940;DHT22;2995;-31.998;115.906;2022-10-31T09:08:38;18.40;99.90
5940;DHT22;2995;-31.998;115.906;2022-10-31T09:11:11;18.30;99.90
5940;DHT22;2995;-31.998;115.906;2022-10-31T09:13:43;18.20;99.90
5940;DHT22;2995;-31.998;115.906;2022-10-31T09:16:14;18.10;99.90
5940;DHT22;2995;-31.998;115.906;2022-10-31T09:18:45;18.10;99.90
5940;DHT22;2995;-31.998;115.906;2022-10-31T09:21:17;18.20;99.90
5940;DHT22;2995;-31.998;115.906;2022-10-31T09:23:48;18.20;99.90
5940;DHT22;2995;-31.998;115.906;2022-10-31T09:26:23;18.10;99.90
5940;DHT22;2995;-31.998;115.906;2022-10-31T09:28:54;18.00;99.90
5940;DHT22;2995;-31.998;115.906;2022-10-31T09:31:26;18.10;99.90
5940;DHT22;2995;-31.998;115.906;2022-10-31T09:33:57;18.10;99.90
5940;DHT22;2995;-31.998;115.906;2022-10-31T09:36:28;18.00;99.90
5940;DHT22;2995;-31.998;115.906;2022-10-31T09:39:00;18.00;99.90
5940;DHT22;2995;-31.998;115.906;2022-10-31T09:44:30;17.90;99.90
5940;DHT22;2995;-31.998;115.906;2022-10-31T09:47:09;17.90;99.90
5940;DHT22;2995;-31.998;115.906;2022-10-31T09:49:55;17.80;99.90
5940;DHT22;2995;-31.998;115.906;2022-10-31T09:52:31;17.80;99.90
5940;DHT22;2995;-31.998;115.906;2022-10-31T09:55:08;17.80;99.90
5940;DHT22;2995;-31.998;115.906;2022-10-31T09:57:45;17.70;99.90
5940;DHT22;2995;-31.998;115.906;2022-10-31T10:00:19;17.70;99.90
5940;DHT22;2995;-31.998;115.906;2022-10-31T10:02:56;17.50;99.90
5940;DHT22;2995;-31.998;115.906;2022-10-31T10:05:32;17.60;99.90
5940;DHT22;2995;-31.998;115.906;2022-10-31T10:08:10;17.60;99.90
5940;DHT22;2995;-31.998;115.906;2022-10-31T10:10:49;17.50;99.90
5940;DHT22;2995;-31.998;115.906;2022-10-31T10:13:38;17.50;99.90
5940;DHT22;2995;-31.998;115.906;2022-10-31T10:16:24;17.30;99.90
5940;DHT22;2995;-31.998;115.906;2022-10-31T10:19:12;17.20;99.90
5940;DHT22;2995;-31.998;115.906;2022-10-31T10:21:49;17.10;99.90
5940;DHT22;2995;-31.998;115.906;2022-10-31T10:24:30;17.00;99.90
5940;DHT22;2995;-31.998;115.906;2022-10-31T10:27:13;17.10;99.90
5940;DHT22;2995;-31.998;115.906;2022-10-31T10:29:52;17.00;99.90
5940;DHT22;2995;-31.998;115.906;2022-10-31T10:32:43;16.90;99.90
5940;DHT22;2995;-31.998;115.906;2022-10-31T10:35:22;16.90;99.90
5940;DHT22;2995;-31.998;115.906;2022-10-31T10:37:58;16.80;99.90
5940;DHT22;2995;-31.998;115.906;2022-10-31T10:40:31;16.80;99.90
5940;DHT22;2995;-31.998;115.906;2022-10-31T10:43:17;16.70;99.90
5940;DHT22;2995;-31.998;115.906;2022-10-31T10:46:00;16.60;99.90
5940;DHT22;2995;-31.998;115.906;2022-10-31T10:48:53;16.60;99.90
5940;DHT22;2995;-31.998;115.906;2022-10-31T10:51:31;16.60;99.90
5940;DHT22;2995;-31.998;115.906;2022-10-31T10:54:32;16.60;99.90
5940;DHT22;2995;-31.998;115.906;2022-10-31T10:57:16;16.50;99.90
5940;DHT22;2995;-31.998;115.906;2022-10-31T10:59:49;16.50;99.90
5940;DHT22;2995;-31.998;115.906;2022-10-31T11:02:25;16.50;99.90
5940;DHT22;2995;-31.998;115.906;2022-10-31T11:04:57;16.40;99.90
5940;DHT22;2995;-31.998;115.906;2022-10-31T11:07:38;16.40;99.90
5940;DHT22;2995;-31.998;115.906;2022-10-31T11:10:14;16.40;99.90
5940;DHT22;2995;-31.998;115.906;2022-10-31T11:12:58;16.30;99.90
5940;DHT22;2995;-31.998;115.906;2022-10-31T11:15:33;16.30;99.90
5940;DHT22;2995;-31.998;115.906;2022-10-31T11:18:20;16.30;99.90
5940;DHT22;2995;-31.998;115.906;2022-10-31T11:20:55;16.20;99.90
5940;DHT22;2995;-31.998;115.906;2022-10-31T11:23:27;16.20;99.90
5940;DHT22;2995;-31.998;115.906;2022-10-31T11:26:00;16.20;99.90
5940;DHT22;2995;-31.998;115.906;2022-10-31T11:28:32;16.10;99.90
5940;DHT22;2995;-31.998;115.906;2022-10-31T11:31:10;16.10;99.90
5940;DHT22;2995;-31.998;115.906;2022-10-31T11:33:48;16.00;99.90
5940;DHT22;2995;-31.998;115.906;2022-10-31T11:36:23;16.00;99.90
5940;DHT22;2995;-31.998;115.906;2022-10-31T11:38:55;16.00;99.90
5940;DHT22;2995;-31.998;115.906;2022-10-31T11:41:28;15.90;99.90
5940;DHT22;2995;-31.998;115.906;2022-10-31T11:44:01;15.90;99.90
5940;DHT22;2995;-31.998;115.906;2022-10-31T11:46:37;15.90;99.90
5940;DHT22;2995;-31.998;115.906;2022-10-31T11:49:16;15.90;99.90
5940;DHT22;2995;-31.998;115.906;2022-10-31T11:51:51;15.90;99.90
5940;DHT22;2995;-31.998;115.906;2022-10-31T11:54:29;15.90;99.90
5940;DHT22;2995;-31.998;115.906;2022-10-31T11:57:01;15.90;99.90
5940;DHT22;2995;-31.998;115.906;2022-10-31T11:59:33;15.80;99.90
5940;DHT22;2995;-31.998;115.906;2022-10-31T12:02:18;15.70;99.90
5940;DHT22;2995;-31.998;115.906;2022-10-31T12:04:56;15.80;99.90
5940;DHT22;2995;-31.998;115.906;2022-10-31T12:07:31;15.80;99.90
5940;DHT22;2995;-31.998;115.906;2022-10-31T12:10:09;15.70;99.90
5940;DHT22;2995;-31.998;115.906;2022-10-31T12:12:50;15.70;99.90
5940;DHT22;2995;-31.998;115.906;2022-10-31T12:15:32;15.70;99.90
5940;DHT22;2995;-31.998;115.906;2022-10-31T12:18:30;15.70;99.90
5940;DHT22;2995;-31.998;115.906;2022-10-31T12:21:17;15.60;99.90
5940;DHT22;2995;-31.998;115.906;2022-10-31T12:23:57;15.60;99.90
5940;DHT22;2995;-31.998;115.906;2022-10-31T12:26:37;15.50;99.90
5940;DHT22;2995;-31.998;115.906;2022-10-31T12:29:26;15.50;99.90
5940;DHT22;2995;-31.998;115.906;2022-10-31T12:32:11;15.40;99.90
5940;DHT22;2995;-31.998;115.906;2022-10-31T12:44:05;15.30;99.90
5940;DHT22;2995;-31.998;115.906;2022-10-31T12:46:59;15.30;99.90
5940;DHT22;2995;-31.998;115.906;2022-10-31T12:49:41;15.30;99.90
5940;DHT22;2995;-31.998;115.906;2022-10-31T12:52:30;15.30;99.90
5940;DHT22;2995;-31.998;115.906;2022-10-31T12:55:29;15.10;99.90
5940;DHT22;2995;-31.998;115.906;2022-10-31T12:58:10;15.10;99.90
5940;DHT22;2995;-31.998;115.906;2022-10-31T13:00:48;15.00;99.90
5940;DHT22;2995;-31.998;115.906;2022-10-31T13:03:29;14.90;99.90
5940;DHT22;2995;-31.998;115.906;2022-10-31T13:06:08;14.90;99.90
5940;DHT22;2995;-31.998;115.906;2022-10-31T13:08:43;14.90;99.90
5940;DHT22;2995;-31.998;115.906;2022-10-31T13:11:18;14.80;99.90
5940;DHT22;2995;-31.998;115.906;2022-10-31T13:13:56;14.80;99.90
5940;DHT22;2995;-31.998;115.906;2022-10-31T13:16:33;14.70;99.90
5940;DHT22;2995;-31.998;115.906;2022-10-31T13:19:13;14.80;99.90
5940;DHT22;2995;-31.998;115.906;2022-10-31T13:21:54;14.70;99.90
5940;DHT22;2995;-31.998;115.906;2022-10-31T13:24:33;14.70;99.90
5940;DHT22;2995;-31.998;115.906;2022-10-31T13:27:13;14.60;99.90
5940;DHT22;2995;-31.998;115.906;2022-10-31T13:29:56;14.50;99.90
5940;DHT22;2995;-31.998;115.906;2022-10-31T13:32:36;14.50;99.90
5940;DHT22;2995;-31.998;115.906;2022-10-31T13:35:14;14.50;99.90
5940;DHT22;2995;-31.998;115.906;2022-10-31T13:37:52;14.40;99.90
5940;DHT22;2995;-31.998;115.906;2022-10-31T13:40:35;14.40;99.90
5940;DHT22;2995;-31.998;115.906;2022-10-31T13:43:17;14.40;99.90
5940;DHT22;2995;-31.998;115.906;2022-10-31T13:45:52;14.30;99.90
5940;DHT22;2995;-31.998;115.906;2022-10-31T13:48:38;14.20;99.90
5940;DHT22;2995;-31.998;115.906;2022-10-31T13:51:11;14.10;99.90
5940;DHT22;2995;-31.998;115.906;2022-10-31T13:53:55;14.20;99.90
5940;DHT22;2995;-31.998;115.906;2022-10-31T13:56:28;14.20;99.90
5940;DHT22;2995;-31.998;115.906;2022-10-31T13:59:22;14.10;99.90
5940;DHT22;2995;-31.998;115.906;2022-10-31T14:01:56;14.10;99.90
5940;DHT22;2995;-31.998;115.906;2022-10-31T14:04:46;14.10;99.90
5940;DHT22;2995;-31.998;115.906;2022-10-31T14:07:21;14.00;99.90
5940;DHT22;2995;-31.998;115.906;2022-10-31T14:09:56;13.90;99.90
5940;DHT22;2995;-31.998;115.906;2022-10-31T14:12:30;13.90;99.90
5940;DHT22;2995;-31.998;115.906;2022-10-31T14:15:13;13.90;99.90
5940;DHT22;2995;-31.998;115.906;2022-10-31T14:17:48;13.80;99.90
5940;DHT22;2995;-31.998;115.906;2022-10-31T14:20:31;13.90;99.90
5940;DHT22;2995;-31.998;115.906;2022-10-31T14:23:24;13.90;99.90
5940;DHT22;2995;-31.998;115.906;2022-10-31T14:26:18;13.90;99.90
5940;DHT22;2995;-31.998;115.906;2022-10-31T14:28:50;13.70;99.90
5940;DHT22;2995;-31.998;115.906;2022-10-31T14:31:36;13.80;99.90
5940;DHT22;2995;-31.998;115.906;2022-10-31T14:34:21;13.70;99.90
5940;DHT22;2995;-31.998;115.906;2022-10-31T14:37:28;13.70;99.90
5940;DHT22;2995;-31.998;115.906;2022-10-31T14:40:18;13.60;99.90
5940;DHT22;2995;-31.998;115.906;2022-10-31T14:45:59;13.50;99.90
5940;DHT22;2995;-31.998;115.906;2022-10-31T14:51:30;13.50;99.90
5940;DHT22;2995;-31.998;115.906;2022-10-31T14:54:04;13.40;99.90
5940;DHT22;2995;-31.998;115.906;2022-10-31T14:56:37;13.40;99.90
5940;DHT22;2995;-31.998;115.906;2022-10-31T14:59:11;13.20;99.90
5940;DHT22;2995;-31.998;115.906;2022-10-31T15:01:56;13.20;99.90
5940;DHT22;2995;-31.998;115.906;2022-10-31T15:04:34;13.20;99.90
5940;DHT22;2995;-31.998;115.906;2022-10-31T15:07:10;13.10;99.90
5940;DHT22;2995;-31.998;115.906;2022-10-31T15:09:42;13.10;99.90
5940;DHT22;2995;-31.998;115.906;2022-10-31T15:12:25;13.10;99.90
5940;DHT22;2995;-31.998;115.906;2022-10-31T15:14:57;13.10;99.90
5940;DHT22;2995;-31.998;115.906;2022-10-31T15:17:29;13.10;99.90
5940;DHT22;2995;-31.998;115.906;2022-10-31T15:20:02;13.00;99.90
5940;DHT22;2995;-31.998;115.906;2022-10-31T15:22:34;12.90;99.90
5940;DHT22;2995;-31.998;115.906;2022-10-31T15:25:10;12.90;99.90
5940;DHT22;2995;-31.998;115.906;2022-10-31T15:27:44;12.90;99.90
5940;DHT22;2995;-31.998;115.906;2022-10-31T15:30:19;12.90;99.90
5940;DHT22;2995;-31.998;115.906;2022-10-31T15:32:51;12.80;99.90
5940;DHT22;2995;-31.998;115.906;2022-10-31T15:35:26;12.80;99.90
5940;DHT22;2995;-31.998;115.906;2022-10-31T15:37:58;12.90;99.90
5940;DHT22;2995;-31.998;115.906;2022-10-31T15:40:30;12.80;99.90
5940;DHT22;2995;-31.998;115.906;2022-10-31T15:43:03;12.70;99.90
5940;DHT22;2995;-31.998;115.906;2022-10-31T15:45:36;12.90;99.90
5940;DHT22;2995;-31.998;115.906;2022-10-31T15:48:15;12.80;99.90
5940;DHT22;2995;-31.998;115.906;2022-10-31T15:50:52;12.80;99.90
5940;DHT22;2995;-31.998;115.906;2022-10-31T15:53:27;12.70;99.90
5940;DHT22;2995;-31.998;115.906;2022-10-31T15:56:01;12.70;99.90
5940;DHT22;2995;-31.998;115.906;2022-10-31T15:58:39;12.60;99.90
5940;DHT22;2995;-31.998;115.906;2022-10-31T16:01:22;12.60;99.90
5940;DHT22;2995;-31.998;115.906;2022-10-31T16:04:05;12.60;99.90
5940;DHT22;2995;-31.998;115.906;2022-10-31T16:07:01;12.50;99.90
5940;DHT22;2995;-31.998;115.906;2022-10-31T16:09:32;12.50;99.90
5940;DHT22;2995;-31.998;115.906;2022-10-31T16:12:04;12.50;99.90
5940;DHT22;2995;-31.998;115.906;2022-10-31T16:14:40;12.50;99.90
5940;DHT22;2995;-31.998;115.906;2022-10-31T16:17:14;12.50;99.90
5940;DHT22;2995;-31.998;115.906;2022-10-31T16:19:50;12.30;99.90
5940;DHT22;2995;-31.998;115.906;2022-10-31T16:22:26;12.40;99.90
5940;DHT22;2995;-31.998;115.906;2022-10-31T16:25:02;12.40;99.90
5940;DHT22;2995;-31.998;115.906;2022-10-31T16:27:35;12.30;99.90
5940;DHT22;2995;-31.998;115.906;2022-10-31T16:33:24;12.50;99.90